Time;durP1;ratioP1;P1;durP2;ratioP2;P2;SDS_P1;SDS_P2;PMS_P1;PMS_P2;Temp;Humidity;BMP_temperature;BMP_pressure;BME280_temperature;BME280_humidity;BME280_pressure;Samples;Min_cycle;Max_cycle;Signal;HPM_P1;HPM_P2
2022/03/02 00:01:58;;;;;;;8.05;7.13;;;6.00;96.60;;;;;;4949438;28;20279;-63
2022/03/02 00:04:27;;;;;;;8.93;7.60;;;5.80;99.50;;;;;;4953846;28;20290;-63
2022/03/02 00:06:54;;;;;;;9.23;8.32;;;5.80;96.70;;;;;;4955278;28;20235;-63
2022/03/02 00:09:24;;;;;;;7.68;6.97;;;5.50;96.00;;;;;;4955502;29;20242;-63
2022/03/02 00:11:51;;;;;;;9.68;7.28;;;5.50;99.00;;;;;;4953340;29;20760;-63
2022/03/02 00:14:19;;;;;;;7.32;6.72;;;5.40;99.90;;;;;;4955543;29;20290;-63
2022/03/02 00:16:47;;;;;;;8.40;7.60;;;5.40;99.90;;;;;;4955347;28;20210;-63
2022/03/02 00:19:15;;;;;;;8.63;7.82;;;5.50;99.90;;;;;;4955237;29;20341;-63
2022/03/02 00:21:43;;;;;;;10.20;7.30;;;5.50;99.90;;;;;;4955085;29;20215;-63
2022/03/02 00:24:10;;;;;;;8.65;6.72;;;5.60;99.90;;;;;;4955437;29;20242;-63
2022/03/02 00:26:40;;;;;;;7.82;7.03;;;5.80;99.90;;;;;;4954408;29;20310;-63
2022/03/02 00:29:08;;;;;;;8.40;7.53;;;5.90;99.90;;;;;;4950830;29;20290;-63
2022/03/02 00:31:35;;;;;;;8.02;7.28;;;6.00;99.90;;;;;;4954438;29;20227;-64
2022/03/02 00:34:03;;;;;;;8.40;7.00;;;6.00;99.90;;;;;;4951385;29;20238;-63
2022/03/02 00:36:31;;;;;;;8.85;7.32;;;6.00;99.90;;;;;;4954929;29;20261;-64
2022/03/02 00:38:59;;;;;;;8.98;7.35;;;6.00;99.90;;;;;;4955162;29;20748;-63
2022/03/02 00:41:27;;;;;;;8.30;7.50;;;6.10;99.90;;;;;;4953217;28;20286;-64
2022/03/02 00:43:56;;;;;;;7.82;7.13;;;6.10;99.90;;;;;;4954403;29;20291;-64
2022/03/02 00:46:29;;;;;;;7.75;6.95;;;6.10;99.90;;;;;;4955187;29;20254;-64
2022/03/02 00:48:58;;;;;;;8.10;7.30;;;6.00;99.30;;;;;;4954914;29;20294;-63
2022/03/02 00:51:27;;;;;;;8.48;7.43;;;5.80;99.90;;;;;;4955156;29;20234;-64
2022/03/02 00:53:55;;;;;;;8.05;7.22;;;5.80;99.90;;;;;;4954620;29;20207;-63
2022/03/02 00:56:23;;;;;;;7.75;6.97;;;5.90;99.90;;;;;;4953958;28;20302;-64
2022/03/02 00:58:51;;;;;;;8.75;7.03;;;5.80;99.90;;;;;;4954804;29;20332;-64
2022/03/02 01:01:21;;;;;;;9.90;7.40;;;5.80;99.90;;;;;;4949724;29;20282;-63
2022/03/02 01:03:49;;;;;;;8.90;7.88;;;5.90;99.90;;;;;;4954031;28;20211;-63
2022/03/02 01:06:18;;;;;;;7.80;6.50;;;5.80;99.90;;;;;;4955664;28;20294;-63
2022/03/02 01:08:46;;;;;;;9.88;8.05;;;5.80;99.90;;;;;;4960593;28;20250;-63
2022/03/02 01:11:14;;;;;;;8.73;7.07;;;5.80;99.90;;;;;;4955681;28;20231;-63
2022/03/02 01:13:42;;;;;;;8.30;6.65;;;5.80;99.90;;;;;;4954438;29;20262;-64
2022/03/02 01:16:10;;;;;;;6.70;6.10;;;5.80;99.90;;;;;;4953637;29;20326;-63
2022/03/02 01:18:39;;;;;;;7.68;6.93;;;5.80;99.90;;;;;;4954270;29;20199;-63
2022/03/02 01:21:07;;;;;;;7.80;7.10;;;5.80;99.90;;;;;;4954126;29;20227;-63
2022/03/02 01:23:35;;;;;;;8.25;7.43;;;5.80;99.90;;;;;;4954331;29;20251;-63
2022/03/02 01:26:04;;;;;;;7.20;6.50;;;5.70;99.90;;;;;;4953760;29;20625;-63
2022/03/02 01:28:32;;;;;;;7.43;6.75;;;5.70;99.90;;;;;;4954134;29;20217;-63
2022/03/02 01:31:00;;;;;;;7.78;7.00;;;5.60;99.90;;;;;;4951127;28;20224;-63
2022/03/02 01:33:28;;;;;;;7.60;6.90;;;5.60;99.90;;;;;;4948932;29;20274;-63
2022/03/02 01:35:57;;;;;;;7.70;7.00;;;5.60;99.90;;;;;;4953736;29;20332;-63
2022/03/02 01:38:25;;;;;;;7.22;6.53;;;5.70;99.90;;;;;;4953770;29;20234;-63
2022/03/02 01:40:53;;;;;;;7.78;7.00;;;5.70;99.90;;;;;;4952360;29;20239;-63
2022/03/02 01:43:21;;;;;;;7.32;6.63;;;5.60;99.90;;;;;;4952848;29;20815;-64
2022/03/02 01:45:49;;;;;;;7.47;6.70;;;5.70;99.90;;;;;;4953978;29;20218;-63
2022/03/02 01:48:16;;;;;;;7.45;6.63;;;5.70;99.90;;;;;;4953516;29;20282;-65
2022/03/02 01:50:44;;;;;;;7.78;7.03;;;5.70;99.90;;;;;;4953928;29;20258;-63
2022/03/02 01:53:13;;;;;;;8.52;6.95;;;5.70;99.90;;;;;;4953200;28;20763;-63
2022/03/02 01:55:41;;;;;;;6.03;5.45;;;5.70;99.90;;;;;;4953192;29;20900;-63
2022/03/02 01:58:10;;;;;;;7.65;6.85;;;5.70;99.90;;;;;;4952816;29;20226;-64
2022/03/02 02:00:38;;;;;;;7.15;5.93;;;5.70;99.90;;;;;;4951032;29;20637;-63
2022/03/02 02:03:06;;;;;;;7.38;6.50;;;5.70;99.90;;;;;;4953159;29;20315;-63
2022/03/02 02:05:34;;;;;;;6.15;5.55;;;5.70;99.90;;;;;;4953354;29;20262;-63
2022/03/02 02:08:02;;;;;;;7.30;6.60;;;5.70;99.90;;;;;;4953597;29;20278;-64
2022/03/02 02:10:31;;;;;;;5.55;5.13;;;5.70;99.90;;;;;;4951850;29;20234;-63
2022/03/02 02:12:59;;;;;;;7.50;6.13;;;5.60;99.90;;;;;;4953070;28;20809;-63
2022/03/02 02:15:27;;;;;;;7.57;6.78;;;5.50;99.90;;;;;;4952394;29;20298;-63
2022/03/02 02:17:56;;;;;;;6.72;5.88;;;5.60;99.90;;;;;;4953297;29;20298;-64
2022/03/02 02:20:25;;;;;;;6.63;6.03;;;5.60;99.90;;;;;;4953188;29;20230;-63
2022/03/02 02:22:55;;;;;;;6.40;5.80;;;5.70;99.90;;;;;;4946528;29;20234;-64
2022/03/02 02:25:22;;;;;;;6.55;5.95;;;5.50;99.90;;;;;;4946327;29;20297;-64
2022/03/02 02:27:50;;;;;;;5.80;5.32;;;5.60;99.90;;;;;;4947016;29;20622;-63
2022/03/02 02:30:18;;;;;;;6.70;6.10;;;5.60;99.90;;;;;;4949375;28;20299;-64
2022/03/02 02:32:46;;;;;;;6.70;6.10;;;5.60;99.90;;;;;;4952256;28;20235;-63
2022/03/02 02:35:14;;;;;;;6.50;5.90;;;5.60;99.90;;;;;;4952970;29;20223;-63
2022/03/02 02:37:42;;;;;;;6.60;5.90;;;5.70;99.90;;;;;;4953181;29;20310;-63
2022/03/02 02:40:14;;;;;;;5.90;5.38;;;5.60;99.90;;;;;;4952312;29;20246;-63
2022/03/02 02:42:44;;;;;;;6.75;6.13;;;5.50;99.90;;;;;;4952588;29;20823;-63
2022/03/02 02:45:15;;;;;;;6.32;5.72;;;5.50;98.10;;;;;;4952935;29;20223;-63
2022/03/02 02:47:44;;;;;;;6.05;5.53;;;5.30;99.90;;;;;;4951930;28;20262;-63
2022/03/02 02:50:18;;;;;;;8.77;6.57;;;5.30;99.90;;;;;;4952615;29;20744;-63
2022/03/02 02:52:46;;;;;;;6.22;5.63;;;5.40;99.90;;;;;;4953181;28;20654;-64
2022/03/02 02:55:16;;;;;;;5.63;5.13;;;5.40;99.90;;;;;;4950829;29;20235;-63
2022/03/02 02:57:45;;;;;;;6.53;5.97;;;5.40;99.90;;;;;;4953086;29;20265;-63
2022/03/02 03:00:16;;;;;;;7.50;6.50;;;5.20;96.60;;;;;;4951259;29;20235;-63
2022/03/02 03:02:46;;;;;;;6.13;5.63;;;5.20;99.90;;;;;;4947648;28;20262;-62
2022/03/02 03:05:17;;;;;;;6.53;6.00;;;5.00;99.90;;;;;;4956639;29;20234;-62
2022/03/02 03:07:45;;;;;;;8.20;6.80;;;4.90;99.90;;;;;;4957036;29;20210;-62
2022/03/02 03:10:16;;;;;;;6.20;5.70;;;4.60;98.40;;;;;;4955745;29;20296;-62
2022/03/02 03:12:46;;;;;;;6.78;6.07;;;4.70;99.90;;;;;;4956595;29;20246;-62
2022/03/02 03:15:17;;;;;;;6.82;6.20;;;4.50;98.20;;;;;;4956914;29;20294;-62
2022/03/02 03:17:45;;;;;;;6.35;5.72;;;4.60;99.90;;;;;;4956698;29;20262;-63
2022/03/02 03:20:17;;;;;;;6.68;6.18;;;4.70;99.90;;;;;;4955814;29;20286;-62
2022/03/02 03:22:45;;;;;;;6.93;6.32;;;4.70;99.80;;;;;;4950066;29;20783;-62
2022/03/02 03:25:15;;;;;;;6.70;6.10;;;4.70;99.90;;;;;;4946743;29;20231;-62
2022/03/02 03:27:44;;;;;;;5.85;5.35;;;4.90;99.90;;;;;;4950823;29;20816;-62
2022/03/02 03:30:14;;;;;;;7.18;6.57;;;4.90;99.90;;;;;;4954271;29;20701;-62
2022/03/02 03:32:42;;;;;;;6.55;5.88;;;4.80;99.90;;;;;;4955243;29;20239;-62
2022/03/02 03:35:12;;;;;;;5.65;5.15;;;4.80;99.90;;;;;;4956009;29;20223;-62
2022/03/02 03:37:41;;;;;;;5.30;4.80;;;5.00;99.90;;;;;;4956422;29;20310;-62
2022/03/02 03:40:12;;;;;;;6.20;5.40;;;5.10;99.90;;;;;;4955271;28;20291;-62
2022/03/02 03:42:41;;;;;;;6.20;5.70;;;5.20;97.90;;;;;;4956100;28;20651;-62
2022/03/02 03:45:10;;;;;;;5.93;5.32;;;5.30;99.90;;;;;;4956362;29;20241;-62
2022/03/02 03:47:39;;;;;;;7.15;5.70;;;5.30;99.90;;;;;;4955491;29;20207;-62
2022/03/02 03:50:08;;;;;;;5.93;5.32;;;5.30;99.90;;;;;;4955747;29;20227;-62
2022/03/02 03:52:36;;;;;;;6.50;5.72;;;5.20;99.90;;;;;;4955747;29;20310;-62
2022/03/02 03:55:06;;;;;;;6.88;5.68;;;5.30;99.90;;;;;;4953678;29;20228;-62
2022/03/02 03:57:34;;;;;;;6.70;6.10;;;5.30;99.80;;;;;;4955992;29;20270;-62
2022/03/02 04:00:06;;;;;;;6.90;6.30;;;5.20;99.90;;;;;;4953623;29;20642;-63
2022/03/02 04:02:34;;;;;;;6.63;6.00;;;5.10;99.90;;;;;;4955354;28;20278;-63
2022/03/02 04:05:02;;;;;;;5.88;5.30;;;5.00;99.90;;;;;;4955789;29;20241;-63
2022/03/02 04:07:30;;;;;;;6.38;5.88;;;5.00;99.90;;;;;;4955373;28;20282;-63
2022/03/02 04:09:59;;;;;;;6.60;6.03;;;5.00;99.90;;;;;;4955206;29;20291;-63
2022/03/02 04:12:27;;;;;;;6.15;5.55;;;4.90;98.60;;;;;;4955147;29;20330;-63
2022/03/02 04:14:55;;;;;;;6.35;5.85;;;4.90;99.90;;;;;;4954353;28;20302;-63
2022/03/02 04:17:25;;;;;;;6.65;5.72;;;4.70;99.90;;;;;;4955277;29;20316;-63
2022/03/02 04:19:53;;;;;;;7.25;6.55;;;4.70;99.90;;;;;;4955810;29;20252;-62
2022/03/02 04:22:20;;;;;;;11.10;6.25;;;4.60;99.90;;;;;;4955027;29;20301;-62
2022/03/02 04:24:48;;;;;;;7.53;6.82;;;4.30;99.90;;;;;;4954870;29;20286;-62
2022/03/02 04:27:16;;;;;;;6.93;6.25;;;4.10;99.90;;;;;;4954051;29;20634;-62
2022/03/02 04:29:45;;;;;;;7.53;6.82;;;4.10;99.90;;;;;;4955070;29;20211;-62
2022/03/02 04:32:13;;;;;;;7.95;7.25;;;4.10;99.90;;;;;;4953184;28;20274;-62
2022/03/02 04:34:42;;;;;;;7.85;7.15;;;4.00;99.90;;;;;;4954856;28;20324;-62
2022/03/02 04:37:10;;;;;;;8.10;7.38;;;4.00;99.90;;;;;;4955386;28;20251;-62
2022/03/02 04:39:39;;;;;;;8.90;6.80;;;3.80;99.90;;;;;;4955129;29;20210;-62
2022/03/02 04:42:07;;;;;;;8.50;7.70;;;3.70;99.90;;;;;;4954936;29;20310;-64
2022/03/02 04:44:35;;;;;;;8.15;7.45;;;3.40;99.90;;;;;;4954737;29;20246;-63
2022/03/02 04:47:03;;;;;;;7.78;7.05;;;3.30;99.90;;;;;;4955161;29;20665;-63
2022/03/02 04:49:31;;;;;;;8.80;8.10;;;3.00;99.90;;;;;;4954887;28;20211;-63
2022/03/02 04:52:00;;;;;;;8.35;7.55;;;2.80;99.90;;;;;;4954527;29;20664;-62
2022/03/02 04:57:14;;;;;;;8.10;7.30;;;2.90;99.90;;;;;;4954719;29;20250;-62
2022/03/02 04:59:42;;;;;;;7.65;7.05;;;2.80;99.90;;;;;;4954264;29;20672;-63
2022/03/02 05:02:10;;;;;;;8.75;8.02;;;2.80;99.90;;;;;;4944606;29;20250;-63
2022/03/02 05:04:38;;;;;;;8.10;7.43;;;2.70;99.90;;;;;;4954088;29;20712;-64
2022/03/02 05:07:07;;;;;;;11.40;8.13;;;2.50;99.90;;;;;;4954115;28;20287;-63
2022/03/02 05:09:35;;;;;;;8.85;7.70;;;2.40;99.90;;;;;;4954445;29;20629;-62
2022/03/02 05:12:04;;;;;;;8.50;7.70;;;2.40;99.90;;;;;;4954481;29;20238;-62
2022/03/02 05:14:32;;;;;;;8.30;7.55;;;2.50;99.90;;;;;;4953052;29;20200;-62
2022/03/02 05:17:00;;;;;;;8.45;7.53;;;2.50;99.90;;;;;;4971303;23;20318;-61
2022/03/02 05:19:27;;;;;;;10.07;9.07;;;2.40;99.90;;;;;;4945898;29;20207;-63
2022/03/02 05:21:55;;;;;;;8.63;7.80;;;2.40;99.90;;;;;;4945397;28;20291;-62
2022/03/02 05:24:25;;;;;;;9.63;8.75;;;2.50;99.90;;;;;;4950173;28;20203;-63
2022/03/02 05:26:52;;;;;;;9.13;8.23;;;2.50;99.90;;;;;;4949389;28;20773;-63
2022/03/02 05:29:20;;;;;;;9.10;8.20;;;2.50;99.90;;;;;;4943463;29;20192;-63
2022/03/02 05:31:48;;;;;;;7.85;7.15;;;2.50;99.90;;;;;;4939305;29;20295;-62
2022/03/02 05:34:16;;;;;;;8.10;7.30;;;2.50;99.90;;;;;;4940105;29;20294;-62
2022/03/02 05:36:44;;;;;;;8.98;8.07;;;2.60;99.90;;;;;;4944397;29;20231;-62
2022/03/02 05:39:12;;;;;;;7.65;6.95;;;2.50;99.90;;;;;;4937993;29;20307;-62
2022/03/02 05:41:41;;;;;;;8.65;7.85;;;2.70;99.90;;;;;;4937965;29;20208;-61
2022/03/02 05:44:09;;;;;;;9.02;8.15;;;2.80;99.90;;;;;;4940207;29;20287;-62
2022/03/02 05:46:37;;;;;;;8.50;7.75;;;2.70;99.90;;;;;;4940783;29;20220;-62
2022/03/02 05:49:08;;;;;;;8.30;7.50;;;2.70;99.90;;;;;;4939586;29;20299;-62
2022/03/02 05:51:37;;;;;;;9.00;8.20;;;3.00;99.90;;;;;;4946513;28;20267;-62
2022/03/02 05:54:08;;;;;;;8.95;7.85;;;2.90;99.90;;;;;;4945338;28;20230;-62
2022/03/02 05:56:37;;;;;;;7.68;6.97;;;3.00;99.90;;;;;;4942288;29;20223;-61
2022/03/02 05:59:07;;;;;;;8.50;7.65;;;3.10;99.90;;;;;;4937214;29;20614;-62
2022/03/02 06:01:35;;;;;;;8.70;7.25;;;3.10;99.90;;;;;;4957212;28;20242;-62
2022/03/02 06:04:05;;;;;;;8.40;7.60;;;3.10;99.90;;;;;;4940932;29;20662;-62
2022/03/02 06:06:41;;;;;;;8.73;8.05;;;3.00;99.90;;;;;;4942191;29;20231;-62
2022/03/02 06:09:11;;;;;;;8.23;7.43;;;3.10;99.90;;;;;;4935325;29;20243;-62
2022/03/02 06:11:40;;;;;;;7.80;7.10;;;2.90;99.90;;;;;;4949648;29;20254;-62
2022/03/02 06:14:10;;;;;;;8.68;7.72;;;3.00;99.90;;;;;;4946041;29;20349;-62
2022/03/02 06:16:43;;;;;;;8.65;7.68;;;3.10;99.90;;;;;;4934581;29;20325;-62
2022/03/02 06:19:12;;;;;;;7.65;6.95;;;3.20;99.90;;;;;;4948022;29;20254;-63
2022/03/02 06:21:43;;;;;;;7.85;7.25;;;3.40;99.90;;;;;;4948519;29;20263;-63
2022/03/02 06:24:14;;;;;;;7.50;6.80;;;3.60;99.90;;;;;;4952023;29;20310;-62
2022/03/02 06:26:42;;;;;;;8.60;7.60;;;3.50;99.90;;;;;;4952971;28;20260;-62
2022/03/02 06:29:12;;;;;;;8.20;7.50;;;3.20;99.90;;;;;;4943196;29;20195;-63
2022/03/02 06:31:40;;;;;;;9.35;8.45;;;3.10;99.90;;;;;;4943063;28;20211;-63
2022/03/02 06:34:08;;;;;;;9.05;7.95;;;2.90;99.90;;;;;;4947698;28;20251;-62
2022/03/02 06:36:36;;;;;;;9.05;8.00;;;2.80;99.90;;;;;;4937268;29;20315;-63
2022/03/02 06:39:04;;;;;;;9.32;8.43;;;2.70;99.90;;;;;;4936433;28;20586;-62
2022/03/02 06:41:47;;;;;;;9.10;8.30;;;2.80;99.90;;;;;;4939759;29;20206;-63
2022/03/02 06:44:23;;;;;;;8.57;7.88;;;3.10;99.90;;;;;;4938580;29;20301;-62
2022/03/02 06:46:58;;;;;;;9.43;8.00;;;3.30;99.90;;;;;;4942575;29;20341;-63
2022/03/02 06:49:34;;;;;;;10.20;8.73;;;3.30;99.90;;;;;;4940867;29;20412;-62
2022/03/02 06:52:04;;;;;;;9.75;8.27;;;3.20;99.90;;;;;;4938461;29;20728;-62
2022/03/02 06:54:34;;;;;;;10.88;7.88;;;3.30;99.90;;;;;;4937584;29;20287;-62
2022/03/02 06:57:04;;;;;;;9.27;8.38;;;3.20;99.90;;;;;;4938961;29;20306;-62
2022/03/02 06:59:39;;;;;;;15.02;9.23;;;3.20;99.90;;;;;;4939186;29;20255;-62
2022/03/02 07:02:09;;;;;;;9.40;8.05;;;3.10;99.90;;;;;;4939681;29;20295;-61
2022/03/02 07:04:41;;;;;;;9.75;8.15;;;3.20;99.90;;;;;;4974674;28;20632;-62
2022/03/02 07:07:10;;;;;;;8.95;8.10;;;3.20;99.90;;;;;;4943031;28;20712;-62
2022/03/02 07:09:39;;;;;;;8.65;7.78;;;3.40;99.90;;;;;;4948848;28;20207;-63
2022/03/02 07:12:08;;;;;;;9.93;8.93;;;3.40;99.90;;;;;;4939470;29;20222;-63
2022/03/02 07:14:37;;;;;;;11.48;8.80;;;3.60;99.90;;;;;;4934181;29;20235;-62
2022/03/02 07:17:06;;;;;;;10.02;9.02;;;3.70;99.90;;;;;;4933697;29;20367;-63
2022/03/02 07:19:34;;;;;;;11.18;8.30;;;3.70;99.90;;;;;;4934303;29;20330;-63
2022/03/02 07:22:04;;;;;;;10.55;8.52;;;3.80;99.90;;;;;;4941971;28;20208;-62
2022/03/02 07:24:40;;;;;;;12.32;9.38;;;3.80;99.90;;;;;;4938108;29;20388;-63
2022/03/02 07:27:08;;;;;;;10.13;8.00;;;3.90;99.90;;;;;;4950155;29;20275;-63
2022/03/02 07:29:37;;;;;;;10.10;8.80;;;3.80;99.90;;;;;;4952606;29;20275;-63
2022/03/02 07:32:07;;;;;;;9.45;8.52;;;3.80;99.90;;;;;;4942981;29;20637;-63
2022/03/02 07:34:42;;;;;;;8.32;7.47;;;3.70;99.90;;;;;;4934108;29;20232;-63
2022/03/02 07:37:10;;;;;;;7.75;7.05;;;3.70;99.90;;;;;;4940247;29;20302;-63
2022/03/02 07:39:41;;;;;;;9.07;8.27;;;3.60;99.90;;;;;;4938870;29;20255;-63
2022/03/02 07:42:09;;;;;;;13.57;7.78;;;3.70;99.90;;;;;;4942905;28;20638;-63
2022/03/02 07:44:38;;;;;;;8.65;7.75;;;3.70;99.90;;;;;;4953133;28;20703;-62
2022/03/02 07:47:06;;;;;;;12.75;8.57;;;5.30;99.90;;;;;;4951336;28;20318;-63
2022/03/02 07:49:35;;;;;;;8.10;7.30;;;5.20;99.90;;;;;;4941594;29;20659;-63
2022/03/02 07:52:06;;;;;;;20.48;8.35;;;5.00;99.90;;;;;;4945564;29;20215;-64
2022/03/02 07:54:37;;;;;;;10.60;7.97;;;5.70;99.90;;;;;;4937263;28;20634;-63
2022/03/02 07:57:06;;;;;;;8.82;7.40;;;5.60;99.90;;;;;;4936364;29;20874;-63
2022/03/02 07:59:37;;;;;;;8.27;7.30;;;5.60;99.90;;;;;;4954989;29;20270;-62
2022/03/02 08:02:08;;;;;;;8.82;7.40;;;5.40;99.90;;;;;;4948846;29;20235;-62
2022/03/02 08:04:37;;;;;;;8.10;7.40;;;5.20;99.90;;;;;;4948257;29;20211;-63
2022/03/02 08:07:06;;;;;;;7.82;7.10;;;5.30;99.90;;;;;;4949432;29;20258;-64
2022/03/02 08:09:35;;;;;;;8.30;7.50;;;4.90;99.90;;;;;;4938018;29;20239;-63
2022/03/02 08:12:06;;;;;;;8.27;7.47;;;4.90;99.90;;;;;;4936663;29;20232;-64
2022/03/02 08:14:33;;;;;;;7.60;6.90;;;4.80;99.90;;;;;;4936305;29;20330;-63
2022/03/02 08:17:02;;;;;;;9.02;8.13;;;4.80;99.90;;;;;;4946449;29;20768;-63
2022/03/02 08:19:31;;;;;;;7.95;7.15;;;4.80;99.90;;;;;;4937056;29;20220;-64
2022/03/02 08:22:04;;;;;;;8.65;6.85;;;5.40;99.90;;;;;;4939172;28;20739;-63
2022/03/02 08:24:32;;;;;;;10.25;7.55;;;5.40;99.90;;;;;;4953648;29;20231;-64
2022/03/02 08:27:03;;;;;;;8.30;7.50;;;5.60;99.90;;;;;;4943183;29;20640;-64
2022/03/02 08:29:32;;;;;;;10.88;6.82;;;5.40;99.80;;;;;;4949907;29;20283;-64
2022/03/02 08:32:03;;;;;;;8.48;7.65;;;5.10;99.90;;;;;;4941665;28;20993;-64
2022/03/02 08:34:43;;;;;;;8.05;7.20;;;5.00;99.90;;;;;;4941355;29;20639;-64
2022/03/02 08:37:11;;;;;;;8.55;6.80;;;4.90;99.30;;;;;;4943956;28;20226;-64
2022/03/02 08:39:41;;;;;;;9.60;7.95;;;4.50;99.60;;;;;;4944419;28;20254;-64
2022/03/02 08:42:09;;;;;;;7.78;7.07;;;4.80;99.30;;;;;;4936514;28;20295;-64
2022/03/02 08:44:38;;;;;;;8.18;7.38;;;4.80;99.70;;;;;;4944132;28;20319;-63
2022/03/02 08:47:06;;;;;;;8.10;7.30;;;4.80;99.00;;;;;;4946012;28;20227;-64
2022/03/02 08:49:34;;;;;;;8.10;7.30;;;4.80;98.60;;;;;;4943811;28;20223;-63
2022/03/02 08:52:04;;;;;;;7.85;7.05;;;4.90;99.30;;;;;;4941571;28;20239;-64
2022/03/02 08:54:36;;;;;;;7.43;6.80;;;4.80;98.90;;;;;;4943624;28;20680;-64
2022/03/02 08:57:05;;;;;;;7.30;6.60;;;4.80;98.50;;;;;;4943823;28;20231;-63
2022/03/02 08:59:35;;;;;;;8.70;7.65;;;4.80;98.50;;;;;;4938004;28;20314;-63
2022/03/02 09:02:07;;;;;;;6.88;6.28;;;4.80;98.50;;;;;;4940014;28;20314;-64
2022/03/02 09:04:36;;;;;;;7.65;6.95;;;4.70;98.60;;;;;;4940763;28;20211;-63
2022/03/02 09:07:06;;;;;;;11.93;7.30;;;4.70;98.60;;;;;;4944637;28;20317;-63
2022/03/02 09:09:34;;;;;;;7.47;6.78;;;4.70;99.10;;;;;;4936285;28;20286;-63
2022/03/02 09:12:03;;;;;;;7.60;6.90;;;4.70;99.00;;;;;;4943140;28;20655;-63
2022/03/02 09:14:31;;;;;;;7.75;7.05;;;4.70;99.10;;;;;;4945604;28;20215;-63
2022/03/02 09:16:59;;;;;;;8.30;7.50;;;4.70;98.70;;;;;;4945439;28;20277;-64
2022/03/02 09:19:27;;;;;;;8.55;7.75;;;4.70;98.90;;;;;;4948569;28;20472;-64
2022/03/02 09:21:57;;;;;;;8.07;7.28;;;4.60;99.00;;;;;;4942767;28;20211;-64
2022/03/02 09:24:29;;;;;;;7.50;6.80;;;4.60;99.30;;;;;;4943426;28;20299;-63
2022/03/02 09:26:58;;;;;;;9.07;7.50;;;4.70;98.90;;;;;;4938016;28;20331;-63
2022/03/02 09:29:29;;;;;;;8.13;7.25;;;4.60;98.80;;;;;;4942585;29;20231;-63
2022/03/02 09:31:58;;;;;;;7.53;6.82;;;4.60;99.00;;;;;;4940991;28;20294;-64
2022/03/02 09:34:29;;;;;;;8.27;7.43;;;4.70;99.50;;;;;;4937264;28;20207;-64
2022/03/02 09:36:59;;;;;;;8.18;7.38;;;4.70;99.40;;;;;;4945225;28;20256;-63
2022/03/02 09:39:28;;;;;;;7.22;6.50;;;4.70;98.60;;;;;;4938123;28;20208;-63
2022/03/02 09:42:04;;;;;;;8.18;7.38;;;4.80;99.40;;;;;;4948155;28;21038;-63
2022/03/02 09:44:35;;;;;;;8.35;7.65;;;4.80;98.60;;;;;;4939108;28;20291;-63
2022/03/02 09:47:07;;;;;;;7.63;6.75;;;4.80;98.70;;;;;;4941841;28;20243;-63
2022/03/02 09:49:37;;;;;;;9.35;7.88;;;4.80;98.60;;;;;;4945350;28;20299;-64
2022/03/02 09:52:07;;;;;;;8.77;7.82;;;4.80;98.80;;;;;;4944227;28;20242;-64
2022/03/02 09:54:39;;;;;;;9.20;7.60;;;4.90;99.00;;;;;;4942807;28;20235;-63
2022/03/02 09:57:09;;;;;;;8.48;7.65;;;4.90;98.40;;;;;;4940192;28;20223;-63
2022/03/02 09:59:39;;;;;;;8.65;7.80;;;5.00;98.90;;;;;;4936118;28;20258;-63
2022/03/02 10:02:10;;;;;;;9.15;7.95;;;5.10;98.50;;;;;;4938278;28;20243;-63
2022/03/02 10:04:49;;;;;;;7.75;6.97;;;5.20;98.70;;;;;;4943905;28;20298;-63
2022/03/02 10:07:29;;;;;;;10.77;7.43;;;5.30;98.10;;;;;;4944464;28;20259;-62
2022/03/02 10:10:07;;;;;;;7.50;6.80;;;5.40;97.60;;;;;;4944120;28;20291;-62
2022/03/02 10:12:36;;;;;;;9.88;8.02;;;5.50;96.80;;;;;;4941339;28;20222;-63
2022/03/02 10:15:07;;;;;;;7.45;6.72;;;5.50;97.10;;;;;;4942518;28;20267;-62
2022/03/02 10:17:36;;;;;;;9.85;7.97;;;5.50;96.70;;;;;;4941051;28;20581;-63
2022/03/02 10:20:07;;;;;;;7.60;6.95;;;5.50;96.70;;;;;;4941535;28;20265;-62
2022/03/02 10:22:51;;;;;;;9.85;7.72;;;5.50;96.70;;;;;;4938364;28;20298;-62
2022/03/02 10:25:26;;;;;;;10.50;7.43;;;5.50;96.40;;;;;;4936387;28;20800;-62
2022/03/02 10:28:01;;;;;;;8.23;7.53;;;5.50;96.40;;;;;;4945684;28;20721;-63
2022/03/02 10:30:32;;;;;;;7.60;6.68;;;5.50;96.90;;;;;;4935980;28;20259;-63
2022/03/02 10:33:12;;;;;;;8.85;7.95;;;5.50;97.00;;;;;;4940992;28;20215;-63
2022/03/02 10:35:50;;;;;;;8.48;7.30;;;5.40;96.30;;;;;;4941013;28;20552;-62
2022/03/02 10:38:30;;;;;;;8.68;7.80;;;5.40;96.50;;;;;;4938784;28;20258;-62
2022/03/02 10:41:01;;;;;;;9.55;7.63;;;5.50;97.20;;;;;;4941598;28;20263;-63
2022/03/02 10:43:38;;;;;;;14.52;7.97;;;5.50;97.50;;;;;;4941276;28;20222;-63
2022/03/02 10:46:08;;;;;;;8.90;8.15;;;5.60;96.90;;;;;;4944192;28;20207;-63
2022/03/02 10:48:38;;;;;;;9.45;8.57;;;5.60;96.30;;;;;;4936007;28;20314;-64
2022/03/02 10:51:07;;;;;;;9.10;8.30;;;5.60;96.40;;;;;;4941644;28;20199;-63
2022/03/02 10:53:37;;;;;;;7.13;6.43;;;5.70;96.20;;;;;;4939350;28;20291;-62
2022/03/02 10:56:08;;;;;;;8.50;7.60;;;5.90;96.40;;;;;;4937684;28;20294;-62
2022/03/02 10:58:39;;;;;;;9.10;8.10;;;6.10;96.30;;;;;;4939510;28;20282;-63
2022/03/02 11:01:07;;;;;;;8.32;7.63;;;6.20;95.70;;;;;;4940348;28;20269;-63
2022/03/02 11:03:37;;;;;;;8.90;8.05;;;6.20;95.60;;;;;;4940148;28;20217;-63
2022/03/02 11:06:07;;;;;;;8.27;7.55;;;6.30;95.70;;;;;;4940116;28;21081;-63
2022/03/02 11:08:36;;;;;;;8.55;7.65;;;6.50;95.80;;;;;;4946634;28;20317;-63
2022/03/02 11:11:07;;;;;;;8.65;7.10;;;6.70;95.20;;;;;;4940786;28;20219;-63
2022/03/02 11:13:35;;;;;;;9.15;7.78;;;6.90;94.20;;;;;;4946655;28;20693;-63
2022/03/02 11:16:05;;;;;;;9.70;8.30;;;7.10;94.20;;;;;;4935600;28;20266;-64
2022/03/02 11:18:35;;;;;;;8.95;8.07;;;7.50;94.60;;;;;;4941806;28;20267;-63
2022/03/02 11:21:05;;;;;;;8.35;7.05;;;8.10;93.70;;;;;;4944782;28;20226;-63
2022/03/02 11:23:40;;;;;;;7.93;7.18;;;8.50;92.60;;;;;;4942720;28;20281;-63
2022/03/02 11:26:12;;;;;;;7.80;6.35;;;8.70;91.40;;;;;;4949458;28;20261;-63
2022/03/02 11:28:46;;;;;;;10.88;7.95;;;8.90;91.10;;;;;;4942172;28;20212;-63
2022/03/02 11:31:21;;;;;;;8.40;7.22;;;9.20;91.30;;;;;;4950201;28;20306;-63
2022/03/02 11:33:49;;;;;;;9.13;7.25;;;9.60;90.30;;;;;;4944901;28;20211;-64
2022/03/02 11:36:19;;;;;;;7.13;6.45;;;9.90;89.80;;;;;;4945550;28;20200;-62
2022/03/02 11:38:51;;;;;;;10.02;7.82;;;10.00;88.40;;;;;;4942465;28;20315;-63
2022/03/02 11:41:33;;;;;;;7.82;7.13;;;10.20;86.10;;;;;;4941797;28;20326;-63
2022/03/02 11:44:01;;;;;;;7.53;6.82;;;10.40;85.90;;;;;;4942897;28;20591;-63
2022/03/02 11:46:29;;;;;;;7.95;7.13;;;10.60;85.80;;;;;;4947568;28;20221;-63
2022/03/02 11:48:57;;;;;;;11.32;7.35;;;11.10;85.30;;;;;;4946892;28;20703;-64
2022/03/02 11:51:27;;;;;;;8.50;7.60;;;11.50;83.50;;;;;;4944750;28;20579;-65
2022/03/02 11:53:58;;;;;;;8.55;7.45;;;11.90;81.00;;;;;;4938884;28;20876;-64
2022/03/02 11:56:29;;;;;;;8.10;7.28;;;12.40;80.50;;;;;;4946246;28;20697;-64
2022/03/02 11:59:05;;;;;;;8.25;7.55;;;12.50;80.40;;;;;;4946610;28;20306;-64
2022/03/02 12:01:50;;;;;;;8.82;7.40;;;12.50;77.80;;;;;;4939469;28;20215;-64
2022/03/02 12:04:33;;;;;;;9.25;8.13;;;12.60;76.70;;;;;;4946207;28;20199;-63
2022/03/02 12:07:04;;;;;;;8.50;7.70;;;13.30;76.10;;;;;;4943094;28;20250;-64
2022/03/02 12:09:34;;;;;;;7.93;6.88;;;13.60;75.90;;;;;;4944339;28;20214;-63
2022/03/02 12:12:16;;;;;;;8.23;7.30;;;13.90;74.20;;;;;;4943916;28;20291;-63
2022/03/02 12:14:48;;;;;;;9.30;7.30;;;14.20;72.50;;;;;;4933767;29;21052;-63
2022/03/02 12:17:19;;;;;;;9.43;7.45;;;14.50;71.50;;;;;;4942343;28;20250;-64
2022/03/02 12:19:49;;;;;;;10.05;7.53;;;14.50;70.60;;;;;;4943963;28;20607;-63
2022/03/02 12:22:18;;;;;;;8.27;7.40;;;14.60;70.10;;;;;;4943236;28;20307;-64
2022/03/02 12:24:47;;;;;;;8.82;7.78;;;14.80;69.40;;;;;;4940904;28;20279;-64
2022/03/02 12:27:18;;;;;;;9.10;8.20;;;15.00;67.30;;;;;;4940468;28;20250;-64
2022/03/02 12:29:57;;;;;;;7.88;7.07;;;15.20;67.00;;;;;;4947751;28;20231;-64
2022/03/02 12:32:31;;;;;;;8.77;7.43;;;15.00;64.80;;;;;;4945561;28;20291;-63
2022/03/02 12:35:01;;;;;;;8.35;7.60;;;14.80;66.70;;;;;;4946898;28;20207;-63
2022/03/02 12:37:32;;;;;;;8.15;7.45;;;15.10;66.10;;;;;;4939041;28;20263;-63
2022/03/02 12:40:00;;;;;;;9.13;8.25;;;15.20;66.80;;;;;;4944690;29;20736;-64
2022/03/02 12:42:29;;;;;;;7.57;6.78;;;15.40;64.90;;;;;;4943906;28;20231;-64
2022/03/02 12:44:58;;;;;;;8.35;7.45;;;15.50;66.00;;;;;;4942558;28;20934;-64
2022/03/02 12:47:28;;;;;;;7.70;7.07;;;15.30;65.10;;;;;;4944722;28;20730;-64
2022/03/02 12:49:58;;;;;;;8.73;7.47;;;15.40;64.40;;;;;;4942231;28;20215;-64
2022/03/02 12:52:27;;;;;;;11.57;7.50;;;15.50;64.60;;;;;;4938493;28;20287;-64
2022/03/02 12:54:57;;;;;;;7.55;6.82;;;15.70;63.50;;;;;;4941133;28;20242;-64
2022/03/02 12:57:26;;;;;;;8.20;7.43;;;15.10;62.50;;;;;;4948770;28;20335;-64
2022/03/02 12:59:56;;;;;;;8.02;7.22;;;15.50;63.40;;;;;;4942430;28;20235;-63
2022/03/02 13:02:28;;;;;;;8.07;7.28;;;15.80;62.80;;;;;;4942072;28;20247;-63
2022/03/02 13:05:03;;;;;;;7.35;6.60;;;16.20;62.40;;;;;;4942679;28;20677;-64
2022/03/02 13:07:41;;;;;;;7.80;7.10;;;16.40;61.30;;;;;;4940540;28;20226;-64
2022/03/02 13:10:11;;;;;;;7.40;6.70;;;16.90;62.20;;;;;;4939188;29;20211;-62
2022/03/02 13:12:41;;;;;;;7.93;7.22;;;17.10;59.80;;;;;;4942822;28;20238;-63